Time;durP1;ratioP1;P1;durP2;ratioP2;P2;SDS_P1;SDS_P2;PMS_P1;PMS_P2;Temp;Humidity;BMP_temperature;BMP_pressure;BME280_temperature;BME280_humidity;BME280_pressure;Samples;Min_cycle;Max_cycle;Signal;HPM_P1;HPM_P2
2022/11/30 00:00:54;;;;;;;83.97;27.95;;;7.90;99.90;;;;;;5060197;28;20025;-70
2022/11/30 00:03:21;;;;;;;71.57;26.95;;;8.00;99.90;;;;;;5058825;28;20041;-71
2022/11/30 00:05:47;;;;;;;68.70;27.90;;;8.00;99.90;;;;;;5059407;28;20076;-71
2022/11/30 00:08:14;;;;;;;69.55;28.30;;;8.00;99.90;;;;;;5059305;28;20072;-71
2022/11/30 00:10:41;;;;;;;70.40;28.35;;;8.10;99.90;;;;;;5058980;28;20079;-71
2022/11/30 00:13:07;;;;;;;63.53;27.48;;;8.10;99.90;;;;;;5041947;28;20063;-71
2022/11/30 00:15:35;;;;;;;61.88;27.67;;;8.00;99.90;;;;;;5058664;28;20029;-69
2022/11/30 00:18:01;;;;;;;68.65;27.65;;;8.10;99.90;;;;;;5041910;28;20029;-70
2022/11/30 00:20:30;;;;;;;67.75;26.67;;;8.00;99.90;;;;;;5059284;28;20055;-71
2022/11/30 00:22:56;;;;;;;56.58;25.98;;;7.90;99.90;;;;;;5058389;28;20124;-70
2022/11/30 00:25:23;;;;;;;63.13;25.88;;;8.00;99.90;;;;;;5058468;28;20086;-69
2022/11/30 00:27:50;;;;;;;70.93;26.50;;;7.90;99.90;;;;;;5041642;28;20047;-70
2022/11/30 00:30:16;;;;;;;56.42;25.13;;;8.00;99.90;;;;;;5058268;28;20297;-68
2022/11/30 00:32:42;;;;;;;62.60;27.02;;;8.00;99.90;;;;;;5058209;28;20037;-70
2022/11/30 00:35:08;;;;;;;59.70;25.40;;;7.80;99.90;;;;;;5058169;28;20492;-70
2022/11/30 00:37:34;;;;;;;58.35;25.75;;;7.90;99.90;;;;;;5058066;28;20024;-70
2022/11/30 00:40:00;;;;;;;61.90;26.08;;;7.80;99.90;;;;;;5058865;28;20033;-70
2022/11/30 00:42:26;;;;;;;64.07;26.63;;;7.70;99.90;;;;;;5058101;28;20091;-70
2022/11/30 00:44:51;;;;;;;62.10;25.42;;;7.60;99.90;;;;;;5058716;28;20300;-70
2022/11/30 00:47:17;;;;;;;62.42;26.70;;;7.40;99.90;;;;;;5057907;28;20127;-69
2022/11/30 00:49:43;;;;;;;60.90;25.73;;;7.30;99.90;;;;;;5057976;28;20033;-69
2022/11/30 00:52:09;;;;;;;71.30;29.30;;;7.40;99.90;;;;;;5057861;28;20029;-70
2022/11/30 00:54:34;;;;;;;66.20;28.77;;;7.50;99.90;;;;;;5008554;28;20424;-70
2022/11/30 00:57:00;;;;;;;70.45;29.58;;;7.60;99.90;;;;;;5041307;28;20041;-69
2022/11/30 00:59:26;;;;;;;82.10;30.83;;;7.70;99.90;;;;;;5041085;28;20398;-69
2022/11/30 01:01:53;;;;;;;75.72;31.10;;;7.60;99.90;;;;;;5058428;28;20304;-70
2022/11/30 01:04:20;;;;;;;71.68;30.35;;;7.50;99.90;;;;;;5057562;28;20032;-69
2022/11/30 01:06:46;;;;;;;74.93;27.85;;;7.50;99.90;;;;;;5057658;28;20033;-69
2022/11/30 01:09:12;;;;;;;76.63;27.33;;;7.40;99.90;;;;;;5057493;28;20416;-69
2022/11/30 01:11:38;;;;;;;74.47;27.50;;;7.50;99.90;;;;;;5058240;28;20083;-69
2022/11/30 01:14:04;;;;;;;73.28;27.60;;;7.30;99.90;;;;;;5058213;28;20110;-70
2022/11/30 01:16:32;;;;;;;70.95;28.08;;;7.10;99.90;;;;;;5058079;28;20399;-70
2022/11/30 01:18:58;;;;;;;74.07;29.77;;;7.00;99.90;;;;;;5058053;28;20377;-71
2022/11/30 01:21:26;;;;;;;68.95;29.63;;;7.00;99.90;;;;;;5058085;28;20033;-69
2022/11/30 01:23:53;;;;;;;74.50;29.67;;;7.20;99.90;;;;;;5057214;28;20082;-69
2022/11/30 01:26:19;;;;;;;72.45;29.60;;;7.40;99.90;;;;;;5040636;28;20109;-69
2022/11/30 01:28:52;;;;;;;68.53;28.90;;;7.60;99.90;;;;;;5057097;28;20033;-69
2022/11/30 01:31:19;;;;;;;68.75;28.00;;;7.80;99.90;;;;;;5057917;28;20337;-69
2022/11/30 01:33:53;;;;;;;77.35;30.17;;;7.90;99.90;;;;;;5057198;28;20044;-69
2022/11/30 01:36:22;;;;;;;84.82;29.17;;;8.00;99.90;;;;;;5057115;28;20048;-69
2022/11/30 01:38:51;;;;;;;72.80;28.45;;;8.00;99.90;;;;;;5056874;28;20048;-68
2022/11/30 01:41:22;;;;;;;69.40;28.60;;;8.10;99.90;;;;;;5057630;28;20028;-69
2022/11/30 01:43:54;;;;;;;98.60;30.40;;;8.10;99.90;;;;;;5057752;28;20029;-70
2022/11/30 01:46:29;;;;;;;69.70;29.37;;;8.10;99.90;;;;;;5056983;28;20301;-69
2022/11/30 01:49:03;;;;;;;66.93;28.98;;;8.10;99.90;;;;;;5057442;28;20293;-68
2022/11/30 01:51:48;;;;;;;61.15;27.58;;;7.80;99.90;;;;;;5040463;28;20029;-69
2022/11/30 01:54:18;;;;;;;69.45;27.95;;;7.70;99.90;;;;;;5057060;28;20331;-69
2022/11/30 01:56:50;;;;;;;65.00;27.60;;;7.80;99.90;;;;;;5057367;28;20074;-69
2022/11/30 01:59:20;;;;;;;75.25;29.05;;;7.90;99.90;;;;;;5057623;28;20295;-70
2022/11/30 02:01:46;;;;;;;124.38;29.27;;;8.10;99.90;;;;;;5057234;28;20025;-67
2022/11/30 02:04:26;;;;;;;73.40;29.80;;;8.20;99.90;;;;;;5039079;28;20087;-69
2022/11/30 02:06:52;;;;;;;87.80;27.95;;;8.20;99.90;;;;;;5057120;28;20024;-68
2022/11/30 02:09:19;;;;;;;88.72;27.42;;;7.90;99.90;;;;;;5056431;28;20043;-67
2022/11/30 02:11:46;;;;;;;131.95;28.95;;;7.60;99.90;;;;;;5056395;28;20296;-68
2022/11/30 02:14:30;;;;;;;76.40;27.13;;;7.40;99.90;;;;;;5056437;28;20113;-69
2022/11/30 02:17:26;;;;;;;83.07;29.35;;;7.40;99.90;;;;;;5056382;28;20035;-71
2022/11/30 02:20:20;;;;;;;78.15;28.15;;;7.40;99.90;;;;;;5057130;28;20082;-67
2022/11/30 02:22:54;;;;;;;61.30;27.45;;;7.40;99.90;;;;;;5056342;28;20068;-66
2022/11/30 02:25:44;;;;;;;87.85;28.10;;;7.30;99.90;;;;;;5056992;28;20025;-68
2022/11/30 02:28:45;;;;;;;93.97;27.90;;;7.10;99.90;;;;;;5056840;28;20072;-67
2022/11/30 02:31:15;;;;;;;80.38;27.40;;;7.00;99.90;;;;;;5056851;28;20380;-68
2022/11/30 02:33:42;;;;;;;106.53;29.35;;;7.10;99.90;;;;;;5056296;28;20087;-68
2022/11/30 02:36:09;;;;;;;117.20;28.50;;;7.30;99.90;;;;;;5056891;28;20029;-70
2022/11/30 02:38:35;;;;;;;97.20;27.85;;;7.30;99.90;;;;;;5055966;28;20061;-69
2022/11/30 02:41:02;;;;;;;61.28;27.42;;;7.40;99.90;;;;;;5056756;28;20033;-69
2022/11/30 02:43:30;;;;;;;112.13;30.10;;;7.50;99.90;;;;;;5055985;28;20095;-69
2022/11/30 02:46:44;;;;;;;76.88;28.90;;;7.50;99.90;;;;;;5056745;28;20025;-69
2022/11/30 02:49:25;;;;;;;74.72;28.27;;;7.50;99.90;;;;;;5038686;28;20083;-69
2022/11/30 02:51:54;;;;;;;73.43;27.10;;;7.50;99.90;;;;;;5056716;28;20040;-69
2022/11/30 02:54:20;;;;;;;74.05;26.42;;;7.50;99.90;;;;;;5056999;28;20104;-68
2022/11/30 02:56:45;;;;;;;106.43;24.35;;;7.10;99.90;;;;;;5039331;28;20500;-68
2022/11/30 02:59:11;;;;;;;72.45;25.02;;;6.60;99.90;;;;;;5039325;28;20036;-68
2022/11/30 03:01:39;;;;;;;72.20;24.65;;;6.50;99.90;;;;;;5055948;28;20033;-69
2022/11/30 03:04:04;;;;;;;78.43;25.08;;;6.60;99.90;;;;;;5056447;28;20343;-68
2022/11/30 03:06:30;;;;;;;57.75;23.05;;;6.40;99.90;;;;;;5056038;28;20049;-68
2022/11/30 03:08:56;;;;;;;53.20;23.08;;;6.30;99.90;;;;;;5055721;28;20095;-68
2022/11/30 03:11:22;;;;;;;48.38;23.83;;;6.30;99.90;;;;;;5039189;28;20040;-68
2022/11/30 03:13:47;;;;;;;62.92;24.13;;;6.50;99.90;;;;;;5056524;28;20037;-68
2022/11/30 03:16:13;;;;;;;88.57;26.40;;;6.60;99.90;;;;;;5042778;28;20523;-69
2022/11/30 03:18:40;;;;;;;84.15;25.90;;;6.90;99.90;;;;;;5060326;28;20032;-68
2022/11/30 03:21:07;;;;;;;73.13;25.80;;;6.80;99.90;;;;;;5060361;28;20029;-69
2022/11/30 03:23:33;;;;;;;53.17;23.85;;;6.70;99.90;;;;;;5059433;28;20043;-69
2022/11/30 03:25:58;;;;;;;47.13;23.30;;;6.60;99.90;;;;;;5010217;28;20037;-69
2022/11/30 03:28:25;;;;;;;64.97;22.55;;;6.40;99.90;;;;;;5059374;28;20044;-68
2022/11/30 03:30:51;;;;;;;55.13;22.63;;;6.30;99.90;;;;;;5059465;28;20036;-68
2022/11/30 03:33:17;;;;;;;73.90;24.40;;;6.20;99.90;;;;;;5042992;28;20040;-68
2022/11/30 03:35:43;;;;;;;72.50;24.23;;;6.30;99.90;;;;;;5059350;28;20045;-68
2022/11/30 03:38:10;;;;;;;63.15;23.63;;;6.40;99.90;;;;;;5059981;28;20056;-68
2022/11/30 03:40:36;;;;;;;51.17;24.05;;;6.40;99.90;;;;;;5059254;28;20033;-68
2022/11/30 03:43:02;;;;;;;57.90;23.27;;;6.20;99.90;;;;;;5059252;28;20119;-68
2022/11/30 03:45:28;;;;;;;55.97;23.80;;;6.20;99.90;;;;;;5059834;28;20029;-68
2022/11/30 03:47:54;;;;;;;52.45;23.60;;;6.20;99.90;;;;;;5059712;28;20324;-68
2022/11/30 03:50:20;;;;;;;53.45;22.73;;;6.40;99.90;;;;;;5059850;28;20032;-68
2022/11/30 03:52:45;;;;;;;46.38;22.10;;;6.60;99.90;;;;;;5059810;28;20108;-69
2022/11/30 03:55:11;;;;;;;57.72;23.27;;;6.60;99.90;;;;;;5059680;28;20021;-68
2022/11/30 03:57:37;;;;;;;59.28;24.55;;;6.60;99.90;;;;;;5059577;28;20111;-68
2022/11/30 04:00:04;;;;;;;58.97;24.75;;;6.60;99.90;;;;;;5042541;28;20116;-69
2022/11/30 04:02:37;;;;;;;56.83;23.13;;;6.70;99.90;;;;;;5058916;28;20048;-69
2022/11/30 04:05:03;;;;;;;53.10;24.17;;;6.70;99.90;;;;;;5059293;28;20063;-68
2022/11/30 04:07:29;;;;;;;55.22;24.30;;;6.70;99.90;;;;;;5058750;28;20428;-68
2022/11/30 04:09:55;;;;;;;70.38;24.85;;;6.70;99.90;;;;;;5058748;28;20037;-67
2022/11/30 04:12:21;;;;;;;62.25;24.35;;;6.80;99.90;;;;;;5059354;28;20128;-68
2022/11/30 04:14:46;;;;;;;59.08;25.35;;;6.70;99.90;;;;;;5058826;28;20063;-68
2022/11/30 04:17:12;;;;;;;85.95;24.48;;;6.70;99.90;;;;;;5058564;28;20029;-68
2022/11/30 04:19:38;;;;;;;54.03;23.73;;;6.80;99.90;;;;;;5041796;28;20116;-69
2022/11/30 04:22:04;;;;;;;50.45;22.98;;;7.00;99.90;;;;;;5041855;28;20126;-69
2022/11/30 04:24:29;;;;;;;65.65;25.65;;;6.80;99.90;;;;;;5058378;28;20339;-68
2022/11/30 04:26:55;;;;;;;52.30;24.77;;;6.70;99.90;;;;;;5057097;28;20040;-69
2022/11/30 04:29:21;;;;;;;61.42;24.58;;;6.70;99.90;;;;;;5058248;28;20036;-68
2022/11/30 04:31:47;;;;;;;57.47;24.65;;;6.70;99.90;;;;;;5058829;28;20049;-68
2022/11/30 04:34:13;;;;;;;59.63;24.20;;;6.80;99.90;;;;;;5058367;28;20375;-68
2022/11/30 04:36:38;;;;;;;55.55;24.15;;;6.70;99.90;;;;;;5059555;28;20021;-68
2022/11/30 04:39:04;;;;;;;50.53;23.70;;;6.70;99.90;;;;;;5059098;28;20128;-68
2022/11/30 04:41:30;;;;;;;61.45;25.02;;;6.70;99.90;;;;;;5058108;28;20354;-67
2022/11/30 04:43:56;;;;;;;57.00;24.25;;;6.70;99.90;;;;;;5058048;28;20033;-69
2022/11/30 04:46:21;;;;;;;76.40;25.38;;;6.70;99.90;;;;;;5058941;28;20098;-68
2022/11/30 04:48:47;;;;;;;64.13;26.08;;;6.90;99.90;;;;;;5057894;28;20080;-69
2022/11/30 04:51:13;;;;;;;71.95;26.27;;;7.10;99.90;;;;;;5058652;28;20040;-69
2022/11/30 04:53:39;;;;;;;56.35;24.77;;;7.20;99.90;;;;;;5057773;28;20029;-69
2022/11/30 04:56:06;;;;;;;59.20;25.52;;;7.30;99.90;;;;;;5041264;28;20044;-69
2022/11/30 04:58:32;;;;;;;61.22;25.98;;;7.20;99.90;;;;;;5058421;28;20036;-69
2022/11/30 05:00:58;;;;;;;55.92;25.30;;;7.30;99.90;;;;;;5058446;28;20331;-69
2022/11/30 05:03:24;;;;;;;55.70;24.08;;;7.30;99.90;;;;;;5058557;28;20033;-69
2022/11/30 05:05:50;;;;;;;63.50;24.15;;;7.30;99.90;;;;;;5057446;28;20049;-69
2022/11/30 05:08:15;;;;;;;57.15;23.60;;;7.20;99.90;;;;;;5057387;28;20037;-68
2022/11/30 05:10:41;;;;;;;53.90;23.00;;;7.20;99.90;;;;;;5057301;28;20450;-68
2022/11/30 05:13:07;;;;;;;49.55;23.90;;;7.10;99.90;;;;;;5058448;28;20029;-68
2022/11/30 05:15:33;;;;;;;77.55;24.67;;;7.10;99.90;;;;;;5058137;28;20040;-69
2022/11/30 05:18:00;;;;;;;52.78;23.38;;;7.20;99.90;;;;;;5057418;28;20235;-69
2022/11/30 05:20:27;;;;;;;49.78;23.13;;;7.20;99.90;;;;;;5024410;28;20151;-69
2022/11/30 05:22:53;;;;;;;60.97;24.75;;;7.30;99.90;;;;;;5058074;28;20032;-68
2022/11/30 05:25:19;;;;;;;77.78;25.70;;;7.40;99.90;;;;;;5058140;28;20033;-68
2022/11/30 05:27:44;;;;;;;64.18;24.73;;;7.50;99.90;;;;;;5040462;28;20364;-68
2022/11/30 05:30:11;;;;;;;60.97;24.98;;;7.50;99.90;;;;;;5057897;28;20033;-69
2022/11/30 05:32:37;;;;;;;56.33;24.67;;;7.50;99.90;;;;;;5057813;28;20108;-69
2022/11/30 05:35:03;;;;;;;58.60;25.75;;;7.50;99.90;;;;;;5057833;28;20057;-68
2022/11/30 05:37:29;;;;;;;67.63;26.73;;;7.60;99.90;;;;;;5057213;28;20071;-69
2022/11/30 05:39:54;;;;;;;56.53;25.55;;;7.60;99.90;;;;;;5056861;28;20041;-69
2022/11/30 05:42:21;;;;;;;70.20;27.45;;;7.60;99.90;;;;;;5057633;28;20037;-69
2022/11/30 05:44:46;;;;;;;59.22;26.75;;;7.70;99.90;;;;;;5057525;28;20033;-69
2022/11/30 05:47:12;;;;;;;57.85;25.73;;;7.70;99.90;;;;;;5056761;28;20033;-69
2022/11/30 05:49:38;;;;;;;54.28;24.80;;;7.60;99.90;;;;;;5056745;28;20104;-69
2022/11/30 05:52:04;;;;;;;69.63;26.75;;;7.60;99.90;;;;;;5056775;28;20171;-69
2022/11/30 05:54:30;;;;;;;81.60;28.23;;;7.70;99.90;;;;;;5056960;28;20282;-69
2022/11/30 05:56:56;;;;;;;56.25;25.50;;;7.70;99.90;;;;;;5056693;28;20035;-68
2022/11/30 05:59:22;;;;;;;55.70;24.85;;;7.80;99.90;;;;;;5056606;28;20466;-68
2022/11/30 06:01:50;;;;;;;59.92;27.00;;;7.80;99.90;;;;;;5023609;28;20106;-69
2022/11/30 06:04:15;;;;;;;59.95;25.77;;;7.80;99.90;;;;;;5056392;28;20025;-69
2022/11/30 06:06:41;;;;;;;72.72;27.02;;;7.70;99.90;;;;;;5039760;28;20039;-68
2022/11/30 06:09:07;;;;;;;67.68;28.05;;;7.70;99.90;;;;;;5057165;28;20036;-69
2022/11/30 06:11:33;;;;;;;69.88;27.63;;;7.80;99.90;;;;;;5056573;28;20119;-69
2022/11/30 06:13:58;;;;;;;61.72;28.52;;;7.90;99.90;;;;;;5057052;28;20151;-69
2022/11/30 06:16:24;;;;;;;70.32;29.23;;;7.90;99.90;;;;;;5056340;28;20029;-68
2022/11/30 06:18:51;;;;;;;68.75;29.33;;;7.80;99.90;;;;;;5056988;28;20056;-69
2022/11/30 06:21:17;;;;;;;71.85;31.13;;;7.70;99.90;;;;;;5039873;28;20120;-69
2022/11/30 06:23:42;;;;;;;81.00;30.17;;;7.80;99.90;;;;;;5056191;28;20116;-68
2022/11/30 06:26:11;;;;;;;87.07;32.45;;;7.80;99.90;;;;;;5039731;28;20131;-69
2022/11/30 06:28:37;;;;;;;60.75;30.35;;;7.80;99.90;;;;;;5056032;28;20033;-69
2022/11/30 06:31:05;;;;;;;80.35;31.10;;;7.80;99.90;;;;;;5039500;28;20328;-68
2022/11/30 06:33:32;;;;;;;76.75;31.00;;;7.90;99.90;;;;;;5056136;28;20033;-68
2022/11/30 06:35:58;;;;;;;78.65;31.77;;;7.90;99.90;;;;;;5055984;28;20045;-69
2022/11/30 06:38:24;;;;;;;76.60;30.30;;;7.90;99.90;;;;;;5023321;28;20444;-69
2022/11/30 06:40:51;;;;;;;106.95;33.97;;;7.90;99.90;;;;;;5056674;28;20056;-69
2022/11/30 06:43:17;;;;;;;78.38;33.85;;;7.90;99.90;;;;;;5056083;28;20302;-69
2022/11/30 06:45:44;;;;;;;79.00;32.60;;;7.80;99.90;;;;;;5057343;28;20044;-68
2022/11/30 06:48:11;;;;;;;87.82;34.72;;;7.80;99.90;;;;;;5055966;28;20033;-68
2022/11/30 06:50:37;;;;;;;98.25;33.63;;;7.80;99.90;;;;;;5059492;28;20029;-69
2022/11/30 06:53:03;;;;;;;82.03;32.75;;;7.80;99.90;;;;;;5060146;28;20043;-68
2022/11/30 06:55:31;;;;;;;91.63;36.30;;;7.90;99.90;;;;;;5060316;28;20025;-69
2022/11/30 06:58:07;;;;;;;93.93;36.25;;;7.80;99.90;;;;;;5043398;28;20041;-69
2022/11/30 07:00:34;;;;;;;76.82;32.55;;;7.90;99.90;;;;;;5060685;28;20039;-71
2022/11/30 07:03:01;;;;;;;78.38;33.58;;;7.80;99.90;;;;;;5060672;28;20058;-69
2022/11/30 07:05:27;;;;;;;80.30;31.65;;;7.80;99.90;;;;;;5059924;28;20053;-68
2022/11/30 07:07:53;;;;;;;71.20;31.45;;;7.70;99.90;;;;;;5060503;28;20385;-68
2022/11/30 07:10:21;;;;;;;72.10;29.42;;;7.30;99.90;;;;;;5060707;28;20301;-69
2022/11/30 07:12:48;;;;;;;63.47;28.20;;;7.20;99.90;;;;;;5059859;28;20037;-68
2022/11/30 07:15:14;;;;;;;61.50;28.10;;;7.20;99.90;;;;;;5059631;28;20033;-68
2022/11/30 07:17:40;;;;;;;77.28;28.77;;;7.40;99.90;;;;;;5060395;28;20321;-69
2022/11/30 07:20:06;;;;;;;65.93;28.70;;;7.50;99.90;;;;;;5060358;28;20057;-69
2022/11/30 07:22:32;;;;;;;61.95;27.02;;;7.50;99.90;;;;;;5060323;28;20418;-69
2022/11/30 07:27:42;;;;;;;69.78;28.73;;;7.50;99.90;;;;;;5045559;28;20093;-67
2022/11/30 07:30:09;;;;;;;66.93;29.02;;;7.50;99.90;;;;;;5059447;28;20044;-66
2022/11/30 07:32:34;;;;;;;65.32;28.00;;;7.20;99.90;;;;;;5059307;28;20044;-66
2022/11/30 07:35:00;;;;;;;69.82;28.88;;;7.20;99.90;;;;;;5060007;28;20037;-67
2022/11/30 07:37:26;;;;;;;80.03;30.50;;;7.10;99.90;;;;;;5042684;28;20037;-67
2022/11/30 07:39:52;;;;;;;95.57;32.03;;;7.00;99.90;;;;;;5042619;28;20086;-66
2022/11/30 07:42:17;;;;;;;86.90;32.83;;;7.10;99.90;;;;;;5042204;28;20037;-67
2022/11/30 07:44:43;;;;;;;82.30;31.88;;;7.30;99.90;;;;;;5058946;28;20029;-66
2022/11/30 07:47:09;;;;;;;84.47;32.28;;;7.40;99.90;;;;;;5058852;28;20132;-66
2022/11/30 07:49:35;;;;;;;78.55;31.63;;;7.30;99.90;;;;;;5059509;28;20393;-66
2022/11/30 07:52:03;;;;;;;80.07;31.15;;;7.40;99.90;;;;;;5025631;28;20029;-66
2022/11/30 07:54:29;;;;;;;76.60;31.52;;;7.40;99.90;;;;;;5042698;28;20087;-66
2022/11/30 07:56:54;;;;;;;84.03;33.65;;;7.20;99.90;;;;;;5060102;28;20340;-66
2022/11/30 07:59:20;;;;;;;104.15;34.53;;;7.20;99.90;;;;;;5059382;28;20067;-66
2022/11/30 08:01:46;;;;;;;75.97;32.35;;;7.30;99.90;;;;;;5059022;28;20377;-66
2022/11/30 08:04:12;;;;;;;92.85;34.97;;;7.50;99.90;;;;;;5059337;28;20067;-66
2022/11/30 08:06:39;;;;;;;102.82;36.63;;;7.60;99.90;;;;;;5058834;28;20120;-67
2022/11/30 08:09:06;;;;;;;103.00;36.05;;;7.60;99.90;;;;;;5058671;28;20095;-66
2022/11/30 08:11:33;;;;;;;105.05;36.53;;;7.50;99.90;;;;;;5059430;28;20323;-66
2022/11/30 08:14:00;;;;;;;99.90;36.72;;;7.60;99.90;;;;;;5058667;28;20017;-67
2022/11/30 08:16:28;;;;;;;104.47;37.53;;;7.80;99.90;;;;;;5058684;28;20029;-66
2022/11/30 08:18:55;;;;;;;104.88;37.28;;;7.90;99.90;;;;;;5059374;28;20300;-67
2022/11/30 08:21:22;;;;;;;105.63;37.72;;;8.00;99.90;;;;;;5041901;28;20036;-67
2022/11/30 08:23:54;;;;;;;107.93;39.15;;;8.10;99.90;;;;;;5058418;28;20459;-65
2022/11/30 08:26:26;;;;;;;101.25;38.42;;;8.20;99.90;;;;;;5059130;28;20037;-65
2022/11/30 08:28:53;;;;;;;90.03;30.67;;;8.20;99.90;;;;;;5059051;28;20025;-65
2022/11/30 08:31:22;;;;;;;102.70;38.35;;;8.30;99.90;;;;;;5059033;28;20104;-65
2022/11/30 08:33:48;;;;;;;101.25;37.15;;;8.40;99.90;;;;;;5058996;28;20029;-65
2022/11/30 08:36:19;;;;;;;104.97;37.90;;;8.40;99.90;;;;;;5058959;28;20044;-65
2022/11/30 08:38:46;;;;;;;97.85;35.38;;;8.40;99.90;;;;;;5042130;28;20033;-66
2022/11/30 08:41:15;;;;;;;92.43;35.83;;;8.50;99.90;;;;;;5058801;28;20401;-66
2022/11/30 08:43:41;;;;;;;96.35;36.13;;;8.60;99.90;;;;;;5058901;28;20110;-66
2022/11/30 08:46:10;;;;;;;98.05;36.30;;;8.60;99.90;;;;;;5025006;28;20329;-66
2022/11/30 08:48:36;;;;;;;102.22;37.13;;;8.70;99.90;;;;;;5057773;28;20039;-66
2022/11/30 08:51:03;;;;;;;90.68;36.42;;;8.80;99.90;;;;;;5057842;28;20033;-66
2022/11/30 08:53:30;;;;;;;129.32;35.20;;;8.90;99.90;;;;;;5058049;28;20037;-65
2022/11/30 08:56:07;;;;;;;117.20;35.90;;;8.90;99.90;;;;;;5057839;28;20064;-66
2022/11/30 08:58:36;;;;;;;96.47;35.17;;;8.80;99.90;;;;;;5041140;28;20028;-65
2022/11/30 09:01:10;;;;;;;87.78;34.42;;;8.80;99.90;;;;;;5058510;28;20112;-66
2022/11/30 09:03:36;;;;;;;90.10;34.78;;;8.80;99.90;;;;;;5058448;28;20111;-66
2022/11/30 09:06:07;;;;;;;101.15;34.97;;;8.70;99.90;;;;;;5058351;28;20045;-63
2022/11/30 09:08:34;;;;;;;71.78;31.52;;;8.80;99.90;;;;;;5058353;28;20053;-66
2022/11/30 09:11:20;;;;;;;85.53;33.25;;;8.80;99.90;;;;;;5058339;28;20407;-66
2022/11/30 09:13:47;;;;;;;72.93;30.45;;;8.80;99.90;;;;;;5056991;28;20032;-66
2022/11/30 09:16:14;;;;;;;66.57;30.65;;;8.80;99.90;;;;;;5040910;28;20048;-65
2022/11/30 09:18:40;;;;;;;69.75;31.00;;;8.60;99.90;;;;;;5040972;28;20029;-66
2022/11/30 09:21:09;;;;;;;65.93;30.38;;;8.60;99.90;;;;;;5057441;28;20045;-66
2022/11/30 09:23:36;;;;;;;74.05;29.95;;;8.60;99.90;;;;;;5057393;28;20033;-65
2022/11/30 09:26:06;;;;;;;60.70;28.02;;;8.60;99.90;;;;;;5058016;28;20464;-66
2022/11/30 09:28:33;;;;;;;72.47;30.50;;;8.60;99.90;;;;;;5057903;28;20033;-65
2022/11/30 09:31:09;;;;;;;71.20;31.73;;;8.70;99.90;;;;;;5057223;28;20094;-65
2022/11/30 09:33:36;;;;;;;75.40;32.00;;;8.90;99.90;;;;;;5057099;28;20043;-66
2022/11/30 09:36:07;;;;;;;67.05;29.65;;;9.00;99.90;;;;;;5057044;28;20078;-66
2022/11/30 09:38:33;;;;;;;46.45;21.25;;;9.10;99.90;;;;;;5040331;28;20347;-66
2022/11/30 09:41:04;;;;;;;62.67;28.48;;;9.10;99.90;;;;;;5058027;28;20096;-66
2022/11/30 09:43:45;;;;;;;57.42;28.20;;;9.10;99.90;;;;;;5057646;28;20384;-67
2022/11/30 09:46:11;;;;;;;67.30;29.60;;;9.20;99.90;;;;;;5057631;28;20047;-67
2022/11/30 09:49:04;;;;;;;65.95;30.67;;;9.30;99.90;;;;;;5056790;28;20033;-67
2022/11/30 09:52:03;;;;;;;62.42;29.30;;;9.30;99.90;;;;;;5056778;28;20031;-66
2022/11/30 09:54:38;;;;;;;65.95;31.23;;;9.40;99.90;;;;;;5053663;28;20037;-66
2022/11/30 09:57:28;;;;;;;58.92;28.50;;;9.40;99.90;;;;;;5057092;28;20039;-67
2022/11/30 10:00:03;;;;;;;56.92;28.88;;;9.50;99.90;;;;;;5056772;28;20351;-67
2022/11/30 10:02:38;;;;;;;55.58;27.13;;;9.40;99.90;;;;;;5057771;28;20351;-67
2022/11/30 10:05:16;;;;;;;55.33;27.35;;;9.50;99.90;;;;;;5057130;28;20048;-68
2022/11/30 10:07:48;;;;;;;55.85;27.65;;;9.50;99.90;;;;;;5057333;28;20123;-68
2022/11/30 10:10:35;;;;;;;65.30;29.23;;;9.60;99.90;;;;;;5057251;28;20040;-67
2022/11/30 10:13:39;;;;;;;65.10;29.50;;;9.80;99.90;;;;;;5056318;28;20029;-67
2022/11/30 10:16:15;;;;;;;70.20;31.45;;;10.00;99.90;;;;;;5035982;28;20348;-64
2022/11/30 10:18:44;;;;;;;61.58;29.27;;;10.10;99.90;;;;;;5057232;28;20120;-64
2022/11/30 10:21:16;;;;;;;56.45;27.27;;;10.20;99.90;;;;;;5057071;28;20301;-65
2022/11/30 10:24:07;;;;;;;59.55;28.95;;;10.30;99.90;;;;;;5055836;28;20064;-66
2022/11/30 10:26:37;;;;;;;57.13;28.25;;;10.30;99.90;;;;;;5056272;28;20032;-65
2022/11/30 10:29:17;;;;;;;56.08;27.15;;;10.30;99.90;;;;;;5056882;28;20052;-68
2022/11/30 10:31:45;;;;;;;56.40;27.95;;;10.40;99.90;;;;;;5056952;28;20037;-66
2022/11/30 10:34:29;;;;;;;55.22;27.88;;;10.40;99.90;;;;;;5056924;28;20109;-66
2022/11/30 10:37:01;;;;;;;51.00;25.70;;;10.40;99.90;;;;;;5056138;28;20353;-66
2022/11/30 10:39:36;;;;;;;;;;;10.50;99.90;;;;;;5040379;28;20432;-66
2022/11/30 10:42:17;;;;;;;44.30;24.40;;;10.50;99.90;;;;;;5055956;28;19959;-66
2022/11/30 10:44:51;;;;;;;47.50;25.73;;;10.60;99.90;;;;;;5056145;28;20025;-66
2022/11/30 10:47:30;;;;;;;40.55;24.05;;;10.60;99.90;;;;;;5056040;28;20025;-66
2022/11/30 10:49:55;;;;;;;47.40;25.02;;;10.60;99.90;;;;;;5056064;28;20323;-66
2022/11/30 10:52:29;;;;;;;47.05;24.80;;;10.60;99.90;;;;;;5056047;28;20086;-66
2022/11/30 10:54:56;;;;;;;41.70;24.45;;;10.80;99.90;;;;;;5056784;28;20029;-66
2022/11/30 10:57:27;;;;;;;44.13;25.02;;;10.90;99.90;;;;;;5056712;28;20033;-67
2022/11/30 10:59:55;;;;;;;43.70;24.55;;;10.90;99.90;;;;;;5056689;28;20694;-65
2022/11/30 11:02:39;;;;;;;43.90;24.88;;;11.00;99.90;;;;;;5055774;28;20411;-66
2022/11/30 11:05:30;;;;;;;47.78;24.60;;;10.90;99.90;;;;;;5039102;28;20056;-66
2022/11/30 11:08:23;;;;;;;45.42;26.15;;;11.10;99.90;;;;;;5056665;28;20056;-66
2022/11/30 11:10:52;;;;;;;45.25;25.30;;;11.10;99.90;;;;;;5056917;28;20029;-66
2022/11/30 11:13:34;;;;;;;47.10;25.20;;;11.20;99.90;;;;;;5055972;28;20039;-66
2022/11/30 11:16:01;;;;;;;51.83;25.80;;;11.20;99.90;;;;;;5056649;28;20029;-66
2022/11/30 11:18:30;;;;;;;43.92;25.13;;;11.10;99.90;;;;;;5038994;28;20029;-67
2022/11/30 11:21:15;;;;;;;51.10;27.33;;;11.10;99.90;;;;;;5055778;28;20033;-66
2022/11/30 11:23:43;;;;;;;56.42;28.00;;;11.40;99.90;;;;;;5056651;28;20039;-67
2022/11/30 11:26:22;;;;;;;50.10;27.20;;;11.50;99.90;;;;;;5056445;28;20134;-67
2022/11/30 11:28:50;;;;;;;50.80;27.38;;;11.50;99.90;;;;;;5055972;28;20036;-66
2022/11/30 11:31:42;;;;;;;53.47;27.55;;;11.50;99.90;;;;;;5055843;28;20033;-69
2022/11/30 11:34:33;;;;;;;57.33;27.23;;;11.50;99.90;;;;;;5056691;28;20029;-68
2022/11/30 11:37:21;;;;;;;52.65;27.20;;;11.40;99.90;;;;;;5053020;28;20033;-68
2022/11/30 11:40:06;;;;;;;50.25;26.02;;;11.50;99.90;;;;;;5042966;28;20110;-69
2022/11/30 11:42:50;;;;;;;55.63;27.65;;;11.50;99.90;;;;;;5042814;28;20033;-68
2022/11/30 11:45:27;;;;;;;53.15;26.35;;;11.50;99.90;;;;;;5060047;28;20106;-68
2022/11/30 11:48:02;;;;;;;57.92;26.67;;;11.50;99.90;;;;;;5059334;28;20474;-66
2022/11/30 11:50:36;;;;;;;47.47;26.67;;;11.60;99.90;;;;;;5059874;28;20037;-67
2022/11/30 11:53:22;;;;;;;54.55;28.35;;;11.60;99.90;;;;;;5059277;28;20021;-67
2022/11/30 11:55:59;;;;;;;48.35;26.77;;;11.70;99.90;;;;;;5060164;28;20351;-67
2022/11/30 11:59:03;;;;;;;54.17;26.95;;;11.50;99.90;;;;;;5059710;28;20098;-68
2022/11/30 12:01:38;;;;;;;52.20;28.35;;;11.50;99.90;;;;;;5058381;28;20057;-69
2022/11/30 12:04:36;;;;;;;53.47;29.13;;;11.40;99.90;;;;;;5058703;28;20033;-70
2022/11/30 12:07:09;;;;;;;53.03;27.40;;;11.40;99.90;;;;;;5059447;28;20044;-67
2022/11/30 12:09:41;;;;;;;53.10;28.33;;;11.30;99.90;;;;;;5058786;28;20017;-67
2022/11/30 12:12:12;;;;;;;51.95;29.13;;;11.20;99.90;;;;;;5058629;28;20033;-68
2022/11/30 12:14:37;;;;;;;57.33;29.73;;;11.40;99.90;;;;;;5059260;28;20021;-68
2022/11/30 12:17:21;;;;;;;52.58;28.45;;;11.60;99.90;;;;;;5059379;28;20021;-68
2022/11/30 12:19:56;;;;;;;51.65;29.10;;;11.60;99.90;;;;;;5058472;28;20033;-67
2022/11/30 12:22:40;;;;;;;53.42;29.17;;;11.50;99.90;;;;;;5058490;28;20435;-69
2022/11/30 12:25:24;;;;;;;54.15;28.73;;;11.60;99.90;;;;;;5058445;28;20293;-69
2022/11/30 12:28:28;;;;;;;59.85;29.90;;;11.60;99.90;;;;;;5058304;28;20452;-67
2022/11/30 12:31:10;;;;;;;53.47;29.45;;;11.20;99.90;;;;;;5037715;28;20095;-67
2022/11/30 12:33:57;;;;;;;50.33;27.23;;;10.70;99.90;;;;;;5037746;28;20033;-67
2022/11/30 12:36:59;;;;;;;63.95;30.83;;;11.00;99.90;;;;;;5046956;28;20137;-67
2022/11/30 12:39:35;;;;;;;60.53;30.20;;;11.30;99.90;;;;;;5059511;28;20297;-67
2022/11/30 12:42:09;;;;;;;63.83;30.75;;;11.30;99.90;;;;;;5057918;28;20029;-67
2022/11/30 12:44:42;;;;;;;62.10;30.88;;;11.00;99.90;;;;;;5058706;28;20106;-68
2022/11/30 12:47:55;;;;;;;66.47;31.60;;;10.60;99.90;;;;;;5057631;28;20044;-68
2022/11/30 12:50:48;;;;;;;59.75;29.33;;;10.50;99.90;;;;;;5049646;28;20095;-67
2022/11/30 12:53:23;;;;;;;69.28;33.38;;;10.80;99.90;;;;;;5058638;28;20037;-67
2022/11/30 12:56:04;;;;;;;75.18;33.28;;;11.10;99.90;;;;;;5041206;28;20033;-69